createdAt,value
2019-03-21T00:02:11.568Z,4.90
2019-03-21T00:04:39.162Z,4.80
2019-03-21T00:07:07.504Z,4.80
2019-03-21T00:09:35.137Z,4.80
2019-03-21T00:12:08.328Z,4.70
2019-03-21T00:14:41.820Z,4.80
2019-03-21T00:17:20.992Z,4.70
2019-03-21T00:19:48.600Z,4.60
2019-03-21T00:22:16.167Z,4.50
2019-03-21T00:24:43.745Z,4.50
2019-03-21T00:27:11.359Z,4.60
2019-03-21T00:29:38.935Z,4.60
2019-03-21T00:32:06.508Z,4.50
2019-03-21T00:34:34.201Z,4.40
2019-03-21T00:37:01.776Z,4.40
2019-03-21T00:39:32.979Z,4.30
2019-03-21T00:41:57.032Z,4.20
2019-03-21T00:44:24.611Z,4.20
2019-03-21T00:46:52.187Z,4.20
2019-03-21T00:49:19.845Z,4.20
2019-03-21T00:51:47.368Z,4.20
2019-03-21T00:54:14.975Z,4.10
2019-03-21T00:56:42.545Z,4.10
2019-03-21T00:59:10.113Z,4.10
2019-03-21T01:01:37.702Z,4.10
2019-03-21T01:04:05.278Z,4.10
2019-03-21T01:06:32.892Z,4.00
2019-03-21T01:09:00.465Z,4.10
2019-03-21T01:11:28.040Z,4.30
2019-03-21T01:13:55.649Z,4.40
2019-03-21T01:16:23.221Z,4.40
2019-03-21T01:18:51.409Z,4.30
2019-03-21T01:21:18.963Z,4.20
2019-03-21T01:23:46.496Z,4.10
2019-03-21T01:26:14.863Z,3.90
2019-03-21T01:28:42.433Z,3.90
2019-03-21T01:31:10.046Z,3.90
2019-03-21T01:33:37.618Z,3.80
2019-03-21T01:36:08.160Z,3.70
2019-03-21T01:38:35.764Z,3.60
2019-03-21T01:41:13.207Z,3.60
2019-03-21T01:43:40.834Z,3.50
2019-03-21T01:46:14.341Z,3.50
2019-03-21T01:48:41.914Z,3.50
2019-03-21T01:51:09.515Z,3.40
2019-03-21T01:53:37.089Z,3.40
2019-03-21T01:56:04.707Z,3.40
2019-03-21T01:58:32.274Z,3.50
2019-03-21T02:00:59.850Z,3.50
2019-03-21T02:03:27.463Z,3.50
2019-03-21T02:05:55.038Z,3.40
2019-03-21T02:08:22.654Z,3.40
2019-03-21T02:10:50.235Z,3.40
2019-03-21T02:13:18.561Z,3.40
2019-03-21T02:15:46.625Z,3.30
2019-03-21T02:18:14.112Z,3.30
2019-03-21T02:20:41.719Z,3.20
2019-03-21T02:23:09.293Z,3.20
2019-03-21T02:25:36.868Z,3.20
2019-03-21T02:28:04.473Z,3.20
2019-03-21T02:30:38.244Z,3.10
2019-03-21T02:33:23.912Z,3.10
2019-03-21T02:35:51.493Z,3.10
2019-03-21T02:38:19.062Z,3.00
2019-03-21T02:40:46.660Z,3.00
2019-03-21T02:43:15.008Z,2.90
2019-03-21T02:45:42.609Z,2.90
2019-03-21T02:48:10.947Z,2.90
2019-03-21T02:50:41.211Z,2.80
2019-03-21T02:53:08.813Z,2.90
2019-03-21T02:55:36.392Z,2.90
2019-03-21T02:58:04.048Z,2.90
2019-03-21T03:00:31.614Z,2.80
2019-03-21T03:02:59.215Z,2.70
2019-03-21T03:05:27.584Z,2.60
2019-03-21T03:07:55.157Z,2.60
2019-03-21T03:10:23.906Z,2.60
2019-03-21T03:12:51.479Z,2.60
2019-03-21T03:15:22.904Z,2.60
2019-03-21T03:17:46.666Z,2.70
2019-03-21T03:20:14.238Z,2.60
2019-03-21T03:22:41.857Z,2.60
2019-03-21T03:25:10.194Z,2.60
2019-03-21T03:27:37.765Z,2.60
2019-03-21T03:30:05.367Z,2.60
2019-03-21T03:32:32.941Z,2.60
2019-03-21T03:35:01.060Z,2.50
2019-03-21T03:37:28.127Z,2.50
2019-03-21T03:39:55.706Z,2.50
2019-03-21T03:42:24.074Z,2.50
2019-03-21T03:44:51.646Z,2.40
2019-03-21T03:47:19.708Z,2.40
2019-03-21T03:49:47.287Z,2.40
2019-03-21T03:52:15.617Z,2.40
2019-03-21T03:54:43.218Z,2.40
2019-03-21T03:57:11.560Z,2.40
2019-03-21T03:59:39.171Z,2.40
2019-03-21T04:02:07.506Z,2.40
2019-03-21T04:04:35.076Z,2.40
2019-03-21T04:07:02.686Z,2.30
2019-03-21T04:09:30.255Z,2.30
2019-03-21T04:11:57.883Z,2.40
2019-03-21T04:14:25.458Z,2.40
2019-03-21T04:16:53.796Z,2.30
2019-03-21T04:19:21.960Z,2.30
2019-03-21T04:21:49.529Z,2.30
2019-03-21T04:24:17.134Z,2.50
2019-03-21T04:26:45.477Z,2.50
2019-03-21T04:29:13.076Z,2.40
2019-03-21T04:31:41.414Z,2.40
2019-03-21T04:34:09.038Z,2.40
2019-03-21T04:36:36.605Z,2.30
2019-03-21T04:39:04.178Z,2.30
2019-03-21T04:41:31.801Z,2.30
2019-03-21T04:43:59.381Z,2.30
2019-03-21T04:46:27.007Z,2.20
2019-03-21T04:48:54.589Z,2.20
2019-03-21T04:51:22.939Z,2.20
2019-03-21T04:53:50.532Z,2.10
2019-03-21T04:56:18.898Z,2.10
2019-03-21T04:58:46.826Z,2.10
2019-03-21T05:01:14.404Z,2.00
2019-03-21T05:03:41.986Z,2.00
2019-03-21T05:06:09.595Z,2.00
2019-03-21T05:08:37.195Z,2.00
2019-03-21T05:11:04.913Z,2.00
2019-03-21T05:13:32.497Z,2.00
2019-03-21T05:16:00.082Z,2.00
2019-03-21T05:18:33.571Z,2.00
2019-03-21T05:21:01.149Z,2.00
2019-03-21T05:23:28.734Z,2.00
2019-03-21T05:25:57.105Z,2.10
2019-03-21T05:28:25.465Z,2.10
2019-03-21T05:30:53.057Z,2.10
2019-03-21T05:33:21.421Z,2.10
2019-03-21T05:35:49.000Z,2.10
2019-03-21T05:38:18.421Z,2.00
2019-03-21T05:40:45.995Z,2.00
2019-03-21T05:43:13.579Z,2.00
2019-03-21T05:45:41.262Z,2.00
2019-03-21T05:48:08.838Z,2.00
2019-03-21T05:50:37.184Z,2.00
2019-03-21T05:53:04.797Z,1.90
2019-03-21T05:55:33.134Z,2.00
2019-03-21T05:58:00.837Z,2.00
2019-03-21T06:00:35.251Z,2.20
2019-03-21T06:03:03.598Z,2.20
2019-03-21T06:05:31.264Z,2.20
2019-03-21T06:08:05.467Z,2.20
2019-03-21T06:10:33.045Z,2.20
2019-03-21T06:13:00.756Z,2.20
2019-03-21T06:15:28.345Z,2.10
2019-03-21T06:17:55.932Z,2.30
2019-03-21T06:20:44.457Z,2.30
2019-03-21T06:23:24.213Z,2.50
2019-03-21T06:26:19.398Z,2.70
2019-03-21T06:28:46.986Z,2.70
2019-03-21T06:31:14.603Z,2.70
2019-03-21T06:33:42.177Z,2.60
2019-03-21T06:36:09.804Z,2.60
2019-03-21T06:38:37.742Z,2.60
2019-03-21T06:41:05.323Z,2.60
2019-03-21T06:43:32.950Z,2.70
2019-03-21T06:46:00.528Z,2.80
2019-03-21T06:48:28.107Z,2.80
2019-03-21T06:50:55.741Z,2.80
2019-03-21T06:53:23.320Z,2.90
2019-03-21T06:55:50.899Z,2.90
2019-03-21T06:58:18.535Z,2.90
2019-03-21T07:00:46.118Z,3.00
2019-03-21T07:03:16.188Z,3.10
2019-03-21T07:05:42.797Z,3.20
2019-03-21T07:08:10.378Z,3.20
2019-03-21T07:10:38.002Z,3.40
2019-03-21T07:13:05.588Z,3.50
2019-03-21T07:15:33.957Z,3.50
2019-03-21T07:18:01.587Z,3.50
2019-03-21T07:20:29.161Z,3.50
2019-03-21T07:22:56.740Z,3.60
2019-03-21T07:25:24.368Z,3.60
2019-03-21T07:27:51.938Z,3.60
2019-03-21T07:30:19.799Z,3.70
2019-03-21T07:32:47.424Z,3.80
2019-03-21T07:35:14.993Z,3.80
2019-03-21T07:37:42.889Z,3.90
2019-03-21T07:40:10.545Z,4.00
2019-03-21T07:42:38.123Z,4.10
2019-03-21T07:45:08.620Z,4.20
2019-03-21T07:47:36.240Z,4.30
2019-03-21T07:50:03.816Z,4.50
2019-03-21T07:52:32.154Z,4.70
2019-03-21T07:54:59.778Z,4.70
2019-03-21T07:57:27.356Z,4.80
2019-03-21T07:59:54.928Z,4.90
2019-03-21T08:02:22.549Z,5.00
2019-03-21T08:04:50.126Z,5.10
2019-03-21T08:07:17.715Z,5.20
2019-03-21T08:09:45.333Z,5.30
2019-03-21T08:12:13.689Z,5.50
2019-03-21T08:14:41.261Z,5.40
2019-03-21T08:17:08.887Z,5.70
2019-03-21T08:19:36.457Z,5.80
2019-03-21T08:22:04.031Z,6.00
2019-03-21T08:24:31.641Z,6.10
2019-03-21T08:26:59.216Z,6.10
2019-03-21T08:29:27.202Z,6.20
2019-03-21T08:31:54.818Z,6.30
2019-03-21T08:34:23.247Z,6.60
2019-03-21T08:36:50.850Z,6.60
2019-03-21T08:39:19.240Z,6.80
2019-03-21T08:41:46.827Z,6.80
2019-03-21T08:44:14.417Z,6.90
2019-03-21T08:46:42.041Z,7.10
2019-03-21T08:49:09.620Z,7.20
2019-03-21T08:51:37.206Z,7.30
2019-03-21T08:54:04.832Z,7.40
2019-03-21T08:56:32.413Z,7.60
2019-03-21T08:59:00.004Z,7.90
2019-03-21T09:01:27.630Z,8.10
2019-03-21T09:03:55.200Z,8.20
2019-03-21T09:06:22.781Z,8.40
2019-03-21T09:08:51.847Z,8.60
2019-03-21T09:11:19.424Z,8.70
2019-03-21T09:13:46.996Z,8.80
2019-03-21T09:16:14.613Z,8.90
2019-03-21T09:18:42.191Z,9.00
2019-03-21T09:21:19.246Z,9.30
2019-03-21T09:23:38.271Z,9.40
2019-03-21T09:26:05.846Z,9.50
2019-03-21T09:28:33.422Z,9.70
2019-03-21T09:31:01.815Z,10.00
2019-03-21T09:33:29.428Z,10.00
2019-03-21T09:35:57.017Z,10.10
2019-03-21T09:38:25.437Z,10.30
2019-03-21T09:40:53.017Z,10.30
2019-03-21T09:43:20.592Z,10.50
2019-03-21T09:45:48.295Z,10.60
2019-03-21T09:48:16.648Z,10.90
2019-03-21T09:50:44.494Z,10.90
2019-03-21T09:53:12.123Z,11.00
2019-03-21T09:55:39.700Z,11.30
2019-03-21T09:58:07.282Z,11.40
2019-03-21T10:00:34.946Z,11.60
2019-03-21T10:03:02.558Z,11.70
2019-03-21T10:05:30.098Z,11.70
2019-03-21T10:07:59.567Z,11.80
2019-03-21T10:10:28.518Z,11.90
2019-03-21T10:12:56.093Z,12.00
2019-03-21T10:15:23.719Z,12.00
2019-03-21T10:17:51.303Z,12.10
2019-03-21T10:20:19.646Z,12.30
2019-03-21T10:22:47.338Z,12.30
2019-03-21T10:25:14.915Z,12.50
2019-03-21T10:27:43.269Z,12.70
2019-03-21T10:30:10.896Z,12.70
2019-03-21T10:32:38.586Z,12.70
2019-03-21T10:35:06.182Z,12.80
2019-03-21T10:37:35.135Z,12.80
2019-03-21T10:40:02.712Z,12.90
2019-03-21T10:42:30.660Z,13.00
2019-03-21T10:44:58.678Z,13.00
2019-03-21T10:47:27.023Z,13.10
2019-03-21T10:49:54.599Z,13.10
2019-03-21T10:52:22.289Z,13.20
2019-03-21T10:54:49.861Z,13.20
2019-03-21T10:57:17.432Z,13.30
2019-03-21T10:59:45.230Z,13.40
2019-03-21T11:02:12.813Z,13.40
2019-03-21T11:04:40.390Z,13.50
2019-03-21T11:07:08.306Z,13.60
2019-03-21T11:09:36.177Z,13.60
2019-03-21T11:12:03.750Z,13.70
2019-03-21T11:14:31.383Z,13.80
2019-03-21T11:16:58.959Z,14.00
2019-03-21T11:19:26.529Z,14.00
2019-03-21T11:22:05.821Z,14.00
2019-03-21T11:24:23.844Z,14.00
2019-03-21T11:26:50.624Z,14.20
2019-03-21T11:29:18.605Z,14.20
2019-03-21T11:31:46.179Z,14.30
2019-03-21T11:34:13.756Z,14.30
2019-03-21T11:36:41.531Z,14.50
2019-03-21T11:39:09.117Z,14.50
2019-03-21T11:41:37.461Z,14.70
2019-03-21T11:44:08.432Z,14.70
2019-03-21T11:46:36.002Z,14.70
2019-03-21T11:49:04.325Z,14.60
2019-03-21T11:51:31.962Z,14.60
2019-03-21T11:53:59.525Z,14.60
2019-03-21T11:56:27.096Z,14.60
2019-03-21T11:58:55.610Z,14.60
2019-03-21T12:01:23.193Z,14.70
2019-03-21T12:03:51.541Z,15.00
2019-03-21T12:06:19.186Z,15.00
2019-03-21T12:08:46.762Z,15.10
2019-03-21T12:11:14.342Z,15.10
2019-03-21T12:13:42.002Z,15.20
2019-03-21T12:16:09.598Z,15.50
2019-03-21T12:18:38.182Z,15.60
2019-03-21T12:21:05.806Z,15.60
2019-03-21T12:23:33.395Z,15.80
2019-03-21T12:26:00.955Z,16.00
2019-03-21T12:28:29.833Z,15.90
2019-03-21T12:30:57.771Z,15.80
2019-03-21T12:33:25.348Z,15.80
2019-03-21T12:35:52.974Z,15.90
2019-03-21T12:38:20.545Z,15.90
2019-03-21T12:40:49.518Z,15.90
2019-03-21T12:43:17.224Z,15.90
2019-03-21T12:45:44.800Z,15.90
2019-03-21T12:48:12.387Z,16.00
2019-03-21T12:50:40.795Z,16.20
2019-03-21T12:53:08.369Z,16.10
2019-03-21T12:55:37.496Z,16.30
2019-03-21T12:58:06.436Z,16.30
2019-03-21T13:00:35.424Z,16.30
2019-03-21T13:03:03.216Z,16.30
2019-03-21T13:05:31.866Z,16.30
2019-03-21T13:07:59.744Z,16.30
2019-03-21T13:10:27.625Z,16.30
2019-03-21T13:12:55.625Z,16.30
2019-03-21T13:15:29.968Z,16.40
2019-03-21T13:17:52.532Z,16.50
2019-03-21T13:20:20.933Z,16.60
2019-03-21T13:22:52.835Z,16.60
2019-03-21T13:25:16.346Z,16.70
2019-03-21T13:27:44.739Z,16.70
2019-03-21T13:30:12.316Z,16.70
2019-03-21T13:32:39.928Z,16.90
2019-03-21T13:35:07.768Z,16.90
2019-03-21T13:37:35.342Z,16.90
2019-03-21T13:40:02.922Z,16.90
2019-03-21T13:42:31.102Z,16.90
2019-03-21T13:44:58.693Z,17.00
2019-03-21T13:47:26.269Z,17.10
2019-03-21T13:49:53.890Z,17.10
2019-03-21T13:52:21.476Z,17.10
2019-03-21T13:54:49.168Z,17.10
2019-03-21T13:57:16.869Z,17.10
2019-03-21T13:59:44.459Z,17.10
2019-03-21T14:02:12.040Z,17.10
2019-03-21T14:04:39.849Z,17.30
2019-03-21T14:07:07.440Z,17.30
2019-03-21T14:09:35.780Z,17.30
2019-03-21T14:12:03.417Z,17.30
2019-03-21T14:14:30.992Z,17.40
2019-03-21T14:16:58.576Z,17.50
2019-03-21T14:19:26.274Z,17.50
2019-03-21T14:21:54.620Z,17.40
2019-03-21T14:24:22.203Z,17.40
2019-03-21T14:26:49.906Z,17.40
2019-03-21T14:29:17.479Z,17.40
2019-03-21T14:31:45.060Z,17.40
2019-03-21T14:34:12.691Z,17.40
2019-03-21T14:36:40.260Z,17.40
2019-03-21T14:39:07.833Z,17.40
2019-03-21T14:41:36.138Z,17.40
2019-03-21T14:44:03.723Z,17.40
2019-03-21T14:46:32.062Z,17.60
2019-03-21T14:48:59.751Z,17.60
2019-03-21T14:51:27.334Z,17.60
2019-03-21T14:53:55.674Z,17.70
2019-03-21T14:56:23.733Z,17.70
2019-03-21T14:58:51.312Z,17.80
2019-03-21T15:01:18.896Z,17.90
2019-03-21T15:03:46.522Z,18.00
2019-03-21T15:06:14.095Z,18.00
2019-03-21T15:08:41.683Z,18.00
2019-03-21T15:11:16.917Z,17.90
2019-03-21T15:13:37.402Z,18.00
2019-03-21T15:16:04.889Z,18.10
2019-03-21T15:18:33.312Z,18.00
2019-03-21T15:21:00.902Z,18.00
2019-03-21T15:23:39.947Z,18.10
2019-03-21T15:25:56.964Z,18.10
2019-03-21T15:28:25.218Z,18.10
2019-03-21T15:30:52.853Z,18.10
2019-03-21T15:33:20.903Z,18.20
2019-03-21T15:35:48.485Z,18.20
2019-03-21T15:38:16.061Z,18.30
2019-03-21T15:40:43.691Z,18.30
2019-03-21T15:43:11.268Z,18.50
2019-03-21T15:45:38.849Z,18.60
2019-03-21T15:48:06.511Z,18.70
2019-03-21T15:50:38.035Z,18.80
2019-03-21T15:53:04.394Z,19.00
2019-03-21T15:55:32.014Z,19.10
2019-03-21T15:58:00.375Z,19.40
2019-03-21T16:00:27.953Z,19.30
2019-03-21T16:02:55.600Z,19.50
2019-03-21T16:05:23.948Z,19.50
2019-03-21T16:07:51.532Z,19.50
2019-03-21T16:10:19.694Z,19.60
2019-03-21T16:12:47.281Z,19.50
2019-03-21T16:15:15.627Z,19.70
2019-03-21T16:17:43.301Z,19.70
2019-03-21T16:20:10.877Z,19.70
2019-03-21T16:22:38.465Z,19.80
2019-03-21T16:25:06.193Z,20.00
2019-03-21T16:27:33.798Z,19.90
2019-03-21T16:30:01.324Z,19.90
2019-03-21T16:32:28.943Z,19.80
2019-03-21T16:34:56.524Z,19.70
2019-03-21T16:37:24.102Z,19.60
2019-03-21T16:39:51.764Z,19.60
2019-03-21T16:42:19.350Z,19.40
2019-03-21T16:44:46.928Z,19.20
2019-03-21T16:47:14.619Z,19.00
2019-03-21T16:49:42.203Z,18.80
2019-03-21T16:52:09.774Z,18.60
2019-03-21T16:54:37.402Z,18.40
2019-03-21T16:57:04.982Z,18.30
2019-03-21T16:59:32.550Z,18.30
2019-03-21T17:02:00.198Z,18.10
2019-03-21T17:04:27.782Z,18.00
2019-03-21T17:06:55.354Z,17.80
2019-03-21T17:09:22.988Z,17.60
2019-03-21T17:11:50.658Z,17.50
2019-03-21T17:14:18.160Z,17.40
2019-03-21T17:16:45.779Z,17.30
2019-03-21T17:19:13.360Z,17.20
2019-03-21T17:21:40.940Z,17.20
2019-03-21T17:24:09.883Z,17.10
2019-03-21T17:26:38.175Z,17.00
2019-03-21T17:29:05.752Z,17.00
2019-03-21T17:31:33.516Z,16.90
2019-03-21T17:34:07.015Z,16.80
2019-03-21T17:36:32.494Z,16.90
2019-03-21T17:39:00.120Z,16.80
2019-03-21T17:41:28.470Z,16.60
2019-03-21T17:43:56.046Z,16.60
2019-03-21T17:46:23.675Z,16.50
2019-03-21T17:48:51.256Z,16.40
2019-03-21T17:51:18.838Z,16.30
2019-03-21T17:53:47.232Z,16.30
2019-03-21T17:56:14.815Z,16.20
2019-03-21T17:58:42.399Z,16.20
2019-03-21T18:01:10.083Z,16.00
2019-03-21T18:03:37.663Z,15.90
2019-03-21T18:06:06.037Z,15.80
2019-03-21T18:08:33.730Z,15.80
2019-03-21T18:11:01.319Z,15.70
2019-03-21T18:13:28.899Z,15.60
2019-03-21T18:15:56.762Z,15.40
2019-03-21T18:18:24.342Z,15.30
2019-03-21T18:20:51.921Z,15.30
2019-03-21T18:23:20.314Z,15.40
2019-03-21T18:25:48.654Z,15.20
2019-03-21T18:28:16.229Z,15.20
2019-03-21T18:30:44.082Z,15.00
2019-03-21T18:33:11.673Z,14.70
2019-03-21T18:35:39.249Z,14.50
2019-03-21T18:38:06.902Z,14.30
2019-03-21T18:40:34.475Z,14.10
2019-03-21T18:43:02.847Z,13.70
2019-03-21T18:45:31.233Z,13.60
2019-03-21T18:47:58.832Z,13.60
2019-03-21T18:50:26.409Z,13.40
2019-03-21T18:52:54.026Z,13.30
2019-03-21T18:55:21.603Z,13.20
2019-03-21T18:57:49.179Z,13.00
2019-03-21T19:00:16.805Z,12.90
2019-03-21T19:02:45.150Z,12.70
2019-03-21T19:05:12.726Z,12.70
2019-03-21T19:07:41.121Z,12.70
2019-03-21T19:10:08.699Z,12.70
2019-03-21T19:12:36.272Z,12.70
2019-03-21T19:15:04.346Z,12.60
2019-03-21T19:17:31.976Z,12.50
2019-03-21T19:20:00.460Z,12.30
2019-03-21T19:22:27.955Z,12.30
2019-03-21T19:24:55.566Z,12.30
2019-03-21T19:27:23.105Z,12.20
2019-03-21T19:29:50.728Z,12.10
2019-03-21T19:32:18.523Z,12.00
2019-03-21T19:34:46.043Z,12.10
2019-03-21T19:37:13.679Z,11.90
2019-03-21T19:39:41.320Z,12.00
2019-03-21T19:42:08.900Z,11.80
2019-03-21T19:44:36.526Z,11.60
2019-03-21T19:47:04.105Z,11.40
2019-03-21T19:49:31.680Z,11.30
2019-03-21T19:51:59.342Z,11.10
2019-03-21T19:54:27.285Z,11.10
2019-03-21T19:56:55.156Z,11.10
2019-03-21T19:59:23.376Z,11.00
2019-03-21T20:01:51.025Z,10.90
2019-03-21T20:04:18.576Z,10.80
2019-03-21T20:06:47.036Z,10.70
2019-03-21T20:09:14.583Z,10.60
2019-03-21T20:11:42.214Z,10.60
2019-03-21T20:14:09.861Z,10.50
2019-03-21T20:16:37.546Z,10.40
2019-03-21T20:19:05.098Z,10.40
2019-03-21T20:21:33.725Z,10.20
2019-03-21T20:24:01.381Z,10.20
2019-03-21T20:26:28.926Z,10.10
2019-03-21T20:28:56.561Z,10.00
2019-03-21T20:31:24.157Z,9.90
2019-03-21T20:33:51.806Z,9.90
2019-03-21T20:36:20.258Z,9.80
2019-03-21T20:38:47.915Z,9.80
2019-03-21T20:41:15.571Z,9.70
2019-03-21T20:43:43.658Z,9.70
2019-03-21T20:46:11.259Z,9.60
2019-03-21T20:48:38.364Z,9.50
2019-03-21T20:51:06.084Z,9.40
2019-03-21T20:53:33.784Z,9.40
2019-03-21T20:56:01.413Z,9.40
2019-03-21T20:58:29.058Z,9.30
2019-03-21T21:00:56.640Z,9.20
2019-03-21T21:03:24.286Z,9.20
2019-03-21T21:05:51.896Z,9.10
2019-03-21T21:08:19.478Z,9.10
2019-03-21T21:10:47.050Z,9.00
2019-03-21T21:13:14.685Z,9.00
2019-03-21T21:15:42.467Z,8.90
2019-03-21T21:18:09.961Z,8.80
2019-03-21T21:20:37.632Z,8.80
2019-03-21T21:23:05.173Z,8.80
2019-03-21T21:25:32.738Z,8.80
2019-03-21T21:28:00.357Z,8.70
2019-03-21T21:30:27.927Z,8.70
2019-03-21T21:32:55.536Z,8.60
2019-03-21T21:35:23.896Z,8.40
2019-03-21T21:37:52.233Z,8.40
2019-03-21T21:40:19.813Z,8.30
2019-03-21T21:42:47.432Z,8.30
2019-03-21T21:45:15.013Z,8.20
2019-03-21T21:47:42.596Z,8.20
2019-03-21T21:50:11.001Z,8.10
2019-03-21T21:52:42.297Z,8.00
2019-03-21T21:55:07.223Z,7.90
2019-03-21T21:57:34.682Z,7.90
2019-03-21T22:00:02.266Z,7.90
2019-03-21T22:02:30.600Z,7.80
2019-03-21T22:05:00.293Z,7.70
2019-03-21T22:07:26.555Z,7.70
2019-03-21T22:09:54.129Z,7.70
2019-03-21T22:12:21.747Z,7.60
2019-03-21T22:14:49.324Z,7.60
2019-03-21T22:17:17.188Z,7.50
2019-03-21T22:19:44.812Z,7.50
2019-03-21T22:22:12.383Z,7.40
2019-03-21T22:24:39.952Z,7.40
2019-03-21T22:27:07.564Z,7.30
2019-03-21T22:29:35.150Z,7.30
2019-03-21T22:32:02.713Z,7.20
2019-03-21T22:34:31.125Z,7.20
2019-03-21T22:36:58.689Z,7.10
2019-03-21T22:39:26.271Z,7.10
2019-03-21T22:41:53.973Z,7.00
2019-03-21T22:44:22.319Z,6.90
2019-03-21T22:46:49.883Z,6.90
2019-03-21T22:49:17.533Z,6.90
2019-03-21T22:51:45.113Z,6.80
2019-03-21T22:54:12.690Z,6.90
2019-03-21T22:56:41.776Z,6.80
2019-03-21T22:59:08.727Z,6.80
2019-03-21T23:01:36.251Z,6.80
2019-03-21T23:04:03.946Z,6.80
2019-03-21T23:06:31.529Z,6.70
2019-03-21T23:08:59.865Z,6.70
2019-03-21T23:11:27.690Z,6.70
2019-03-21T23:13:55.252Z,6.70
2019-03-21T23:16:22.824Z,6.70
2019-03-21T23:18:50.466Z,6.60
2019-03-21T23:21:19.198Z,6.40
2019-03-21T23:23:47.272Z,6.40
2019-03-21T23:26:14.968Z,6.40
2019-03-21T23:28:42.538Z,6.30
2019-03-21T23:31:10.115Z,6.20
2019-03-21T23:33:38.491Z,6.30
2019-03-21T23:36:06.826Z,6.20
2019-03-21T23:38:34.389Z,6.20
2019-03-21T23:41:02.005Z,6.10
2019-03-21T23:43:29.571Z,6.10
2019-03-21T23:45:57.144Z,6.10
2019-03-21T23:48:24.753Z,6.10
2019-03-21T23:50:53.041Z,6.20
2019-03-21T23:53:20.671Z,6.10
2019-03-21T23:55:49.253Z,6.20
2019-03-21T23:58:16.830Z,6.20
